Main page
METAR-TAF:

METAR-TAF

Airports :

Brize Norton, England

RAF Brize Norton

latitude: 51-45N, longitude: 001-35W, elevation: 88 m

Current weather observation

The report was made 1 hour and 3 minutes ago, at 16:50 UTC
Calm wind
Temperature 12°C
Humidity 62%
Pressure 1016 hPa
Visibility 10 km or more
Few clouds at a height of 3200 ft
Scattered clouds at a height of 3800 ft
Broken clouds at a height of 6000 ft

METAR: EGVN 281650Z 00000KT 9999 FEW032 SCT038 BKN060 12/05 Q1016 NOSIG

Time: 18:53 (17:53 UTC)

Forecast

The report was made 1 hour and 20 minutes ago, at 16:33 UTC
Forecast valid from 28 at 18 UTC to 29 at 18 UTC
Wind 3 kt from the West/Southwest
Visibility 10 km or more
Broken clouds at a height of 4500 ft

TAF: EGVN 281633Z 2818/2918 24003KT 9999 BKN045

Weather observations and forecasts of more than 4000 airports (METAR and TAF reports).

The available stations are represented by yellow and red dots on the map.

Hover mouse over dot to see the name of the station.

Then click to see weather observations and forecasts.

To change the map : click on the green buttons with a black cross to zoom in, on the green button with a dash to zoom out, or on the green arrows for adjacent maps.


METAR-TAF: